createdAt,value
2023-03-23T00:00:41.731Z,78.53
2023-03-23T00:01:41.742Z,78.53
2023-03-23T00:02:43.517Z,78.39
2023-03-23T00:03:41.746Z,78.09
2023-03-23T00:04:41.698Z,78.19
2023-03-23T00:05:41.835Z,78.09
2023-03-23T00:06:41.664Z,77.98
2023-03-23T00:07:41.708Z,77.98
2023-03-23T00:08:41.642Z,77.88
2023-03-23T00:09:41.661Z,77.88
2023-03-23T00:10:41.621Z,77.88
2023-03-23T00:11:41.642Z,78.29
2023-03-23T00:12:41.613Z,78.29
2023-03-23T00:13:41.606Z,78.39
2023-03-23T00:14:41.579Z,78.29
2023-03-23T00:15:41.932Z,78.39
2023-03-23T00:16:41.564Z,78.60
2023-03-23T00:17:41.594Z,79.11
2023-03-23T00:18:41.546Z,79.49
2023-03-23T00:19:41.557Z,79.38
2023-03-23T00:20:41.517Z,79.90
2023-03-23T00:21:41.534Z,80.00
2023-03-23T00:22:41.494Z,79.59
2023-03-23T00:23:41.499Z,79.38
2023-03-23T00:24:41.493Z,79.49
2023-03-23T00:25:41.613Z,79.28
2023-03-23T00:26:48.138Z,79.59
2023-03-23T00:27:41.457Z,80.10
2023-03-23T00:28:41.428Z,80.21
2023-03-23T00:29:41.446Z,80.31
2023-03-23T00:30:41.422Z,79.90
2023-03-23T00:31:41.419Z,80.00
2023-03-23T00:32:41.388Z,80.10
2023-03-23T00:33:41.395Z,80.41
2023-03-23T00:34:41.368Z,80.21
2023-03-23T00:35:41.655Z,80.31
2023-03-23T00:36:42.950Z,80.51
2023-03-23T00:37:41.353Z,79.90
2023-03-23T00:38:41.325Z,80.41
2023-03-23T00:39:41.340Z,79.38
2023-03-23T00:40:41.310Z,79.18
2023-03-23T00:41:41.325Z,79.35
2023-03-23T00:42:41.290Z,78.63
2023-03-23T00:43:41.290Z,78.94
2023-03-23T00:44:41.262Z,78.63
2023-03-23T00:45:41.481Z,78.63
2023-03-23T00:46:41.248Z,78.74
2023-03-23T00:47:41.263Z,78.53
2023-03-23T00:48:41.240Z,78.42
2023-03-23T00:49:41.235Z,78.32
2023-03-23T00:50:41.230Z,78.42
2023-03-23T00:51:41.201Z,78.53
2023-03-23T00:52:41.193Z,78.74
2023-03-23T00:53:41.165Z,78.83
2023-03-23T00:54:41.186Z,79.24
2023-03-23T00:55:41.311Z,79.04
2023-03-23T00:56:41.179Z,80.17
2023-03-23T00:57:41.132Z,78.74
2023-03-23T00:58:41.166Z,78.70
2023-03-23T00:59:41.114Z,77.98
2023-03-23T01:00:41.112Z,77.47
2023-03-23T01:01:41.085Z,76.65
2023-03-23T01:02:41.107Z,75.28
2023-03-23T01:03:41.060Z,73.81
2023-03-23T01:04:41.067Z,72.86
2023-03-23T01:05:41.182Z,72.11
2023-03-23T01:06:41.053Z,71.29
2023-03-23T01:07:41.027Z,70.23
2023-03-23T01:08:41.035Z,69.48
2023-03-23T01:09:40.997Z,69.38
2023-03-23T01:10:41.015Z,69.28
2023-03-23T01:11:40.972Z,69.18
2023-03-23T01:12:40.981Z,69.18
2023-03-23T01:13:40.969Z,69.28
2023-03-23T01:14:40.958Z,69.79
2023-03-23T01:15:41.042Z,70.20
2023-03-23T01:16:40.951Z,70.81
2023-03-23T01:17:40.909Z,71.01
2023-03-23T01:18:40.932Z,71.01
2023-03-23T01:19:40.887Z,71.36
2023-03-23T01:20:40.909Z,71.46
2023-03-23T01:21:40.866Z,71.87
2023-03-23T01:22:40.885Z,72.07
2023-03-23T01:23:40.846Z,71.87
2023-03-23T01:24:40.872Z,72.38
2023-03-23T01:25:40.942Z,72.79
2023-03-23T01:26:40.829Z,73.20
2023-03-23T01:27:40.801Z,73.50
2023-03-23T01:28:40.822Z,73.74
2023-03-23T01:29:40.782Z,73.54
2023-03-23T01:30:40.805Z,73.64
2023-03-23T01:31:40.762Z,73.54
2023-03-23T01:32:40.767Z,73.64
2023-03-23T01:33:40.738Z,73.64
2023-03-23T01:34:40.744Z,73.54
2023-03-23T01:35:40.951Z,73.64
2023-03-23T01:36:40.735Z,74.15
2023-03-23T01:37:40.696Z,74.60
2023-03-23T01:38:40.707Z,74.60
2023-03-23T01:39:40.685Z,74.60
2023-03-23T01:40:40.707Z,74.60
2023-03-23T01:41:40.658Z,75.01
2023-03-23T01:42:40.677Z,75.42
2023-03-23T01:43:40.635Z,75.52
2023-03-23T01:44:40.653Z,75.82
2023-03-23T01:45:40.721Z,76.03
2023-03-23T01:46:40.633Z,75.93
2023-03-23T01:47:40.592Z,75.72
2023-03-23T01:48:40.600Z,76.06
2023-03-23T01:49:40.571Z,76.06
2023-03-23T01:50:40.598Z,75.96
2023-03-23T01:51:42.158Z,75.65
2023-03-23T01:52:40.556Z,75.96
2023-03-23T01:53:40.541Z,76.17
2023-03-23T01:54:40.552Z,76.37
2023-03-23T01:55:40.629Z,76.78
2023-03-23T01:56:40.519Z,75.86
2023-03-23T01:57:40.488Z,75.86
2023-03-23T01:58:40.495Z,75.86
2023-03-23T01:59:40.467Z,76.06
2023-03-23T02:00:40.518Z,76.27
2023-03-23T02:01:40.456Z,75.86
2023-03-23T02:02:40.451Z,75.86
2023-03-23T02:03:40.420Z,75.76
2023-03-23T02:04:40.463Z,75.55
2023-03-23T02:05:40.598Z,75.45
2023-03-23T02:06:40.409Z,75.65
2023-03-23T02:07:40.396Z,75.45
2023-03-23T02:08:40.389Z,74.94
2023-03-23T02:09:40.360Z,75.04
2023-03-23T02:10:40.366Z,74.73
2023-03-23T02:11:40.342Z,75.14
2023-03-23T02:12:40.373Z,74.69
2023-03-23T02:13:40.318Z,74.80
2023-03-23T02:14:40.338Z,75.01
2023-03-23T02:15:40.497Z,74.49
2023-03-23T02:16:40.302Z,74.49
2023-03-23T02:17:40.313Z,74.29
2023-03-23T02:18:40.295Z,74.60
2023-03-23T02:19:40.269Z,74.29
2023-03-23T02:20:40.275Z,74.39
2023-03-23T02:21:40.235Z,73.88
2023-03-23T02:22:40.260Z,73.98
2023-03-23T02:23:40.216Z,73.88
2023-03-23T02:24:40.234Z,73.88
2023-03-23T02:25:40.446Z,73.98
2023-03-23T02:26:40.204Z,73.88
2023-03-23T02:27:40.170Z,74.49
2023-03-23T02:28:40.186Z,74.60
2023-03-23T02:29:40.151Z,73.57
2023-03-23T02:30:40.163Z,73.78
2023-03-23T02:31:40.133Z,74.19
2023-03-23T02:32:40.151Z,73.68
2023-03-23T02:33:40.104Z,73.88
2023-03-23T02:34:40.129Z,73.88
2023-03-23T02:35:40.533Z,73.98
2023-03-23T02:36:40.088Z,73.88
2023-03-23T02:37:40.061Z,74.08
2023-03-23T02:38:40.065Z,73.57
2023-03-23T02:39:40.036Z,73.57
2023-03-23T02:40:40.059Z,73.88
2023-03-23T02:41:40.057Z,73.36
2023-03-23T02:42:40.052Z,73.36
2023-03-23T02:43:39.998Z,73.27
2023-03-23T02:44:40.005Z,73.68
2023-03-23T02:45:40.129Z,72.04
2023-03-23T02:46:40.015Z,71.83
2023-03-23T02:47:39.957Z,71.32
2023-03-23T02:48:39.960Z,72.00
2023-03-23T02:49:39.943Z,71.80
2023-03-23T02:50:39.954Z,71.49
2023-03-23T02:51:43.197Z,71.70
2023-03-23T02:52:39.932Z,71.70
2023-03-23T02:53:39.893Z,71.80
2023-03-23T02:54:39.913Z,71.59
2023-03-23T02:55:40.046Z,70.98
2023-03-23T02:56:39.897Z,70.67
2023-03-23T02:57:40.226Z,70.98
2023-03-23T02:58:39.850Z,71.39
2023-03-23T02:59:39.822Z,70.57
2023-03-23T03:00:39.843Z,69.75
2023-03-23T03:01:39.802Z,69.93
2023-03-23T03:02:39.807Z,69.93
2023-03-23T03:03:39.789Z,69.62
2023-03-23T03:04:39.787Z,69.82
2023-03-23T03:05:40.034Z,70.03
2023-03-23T03:06:39.783Z,70.34
2023-03-23T03:07:39.742Z,70.13
2023-03-23T03:08:39.768Z,69.62
2023-03-23T03:09:39.726Z,69.93
2023-03-23T03:10:39.738Z,70.03
2023-03-23T03:11:39.695Z,70.23
2023-03-23T03:12:39.715Z,70.23
2023-03-23T03:13:39.687Z,69.93
2023-03-23T03:14:39.680Z,70.43
2023-03-23T03:15:39.842Z,70.43
2023-03-23T03:16:39.657Z,70.03
2023-03-23T03:17:39.639Z,70.03
2023-03-23T03:18:39.663Z,70.13
2023-03-23T03:19:39.630Z,70.23
2023-03-23T03:20:39.636Z,70.03
2023-03-23T03:21:39.590Z,69.42
2023-03-23T03:22:39.611Z,69.31
2023-03-23T03:23:39.572Z,69.52
2023-03-23T03:24:39.595Z,69.62
2023-03-23T03:25:39.975Z,69.38
2023-03-23T03:26:39.575Z,68.80
2023-03-23T03:27:39.539Z,68.26
2023-03-23T03:28:39.534Z,68.77
2023-03-23T03:29:39.517Z,68.97
2023-03-23T03:30:39.514Z,68.77
2023-03-23T03:31:39.487Z,68.05
2023-03-23T03:32:39.493Z,68.05
2023-03-23T03:33:39.466Z,68.16
2023-03-23T03:34:39.480Z,68.36
2023-03-23T03:35:39.485Z,67.95
2023-03-23T03:36:39.464Z,67.95
2023-03-23T03:37:39.424Z,67.95
2023-03-23T03:38:39.432Z,67.75
2023-03-23T03:39:39.401Z,67.85
2023-03-23T03:40:39.410Z,67.54
2023-03-23T03:41:39.381Z,67.75
2023-03-23T03:42:39.412Z,68.16
2023-03-23T03:43:39.363Z,68.16
2023-03-23T03:44:39.366Z,67.54
2023-03-23T03:45:39.353Z,66.93
2023-03-23T03:46:39.358Z,67.54
2023-03-23T03:47:39.317Z,67.13
2023-03-23T03:48:39.330Z,67.54
2023-03-23T03:49:39.297Z,67.54
2023-03-23T03:50:39.311Z,67.13
2023-03-23T03:51:39.282Z,67.13
2023-03-23T03:52:39.294Z,66.93
2023-03-23T03:53:39.251Z,66.59
2023-03-23T03:54:39.265Z,66.59
2023-03-23T03:55:39.509Z,66.49
2023-03-23T03:56:39.247Z,66.80
2023-03-23T03:57:39.208Z,66.80
2023-03-23T03:58:39.232Z,66.69
2023-03-23T03:59:39.188Z,66.69
2023-03-23T04:00:39.209Z,66.18
2023-03-23T04:01:39.189Z,66.18
2023-03-23T04:02:39.183Z,66.49
2023-03-23T04:03:39.145Z,66.18
2023-03-23T04:04:39.165Z,65.98
2023-03-23T04:05:39.125Z,66.18
2023-03-23T04:06:39.139Z,66.18
2023-03-23T04:07:39.115Z,66.39
2023-03-23T04:08:39.126Z,66.28
2023-03-23T04:09:39.082Z,66.39
2023-03-23T04:10:39.087Z,66.80
2023-03-23T04:11:39.063Z,66.52
2023-03-23T04:12:39.093Z,66.83
2023-03-23T04:13:39.041Z,66.11
2023-03-23T04:14:39.044Z,66.52
2023-03-23T04:15:39.043Z,66.52
2023-03-23T04:16:39.028Z,66.72
2023-03-23T04:17:39.004Z,66.52
2023-03-23T04:18:39.000Z,66.72
2023-03-23T04:19:38.978Z,66.52
2023-03-23T04:20:38.996Z,66.83
2023-03-23T04:21:38.955Z,66.93
2023-03-23T04:22:38.970Z,67.03
2023-03-23T04:23:38.934Z,66.93
2023-03-23T04:24:56.360Z,66.83
2023-03-23T04:25:38.978Z,66.52
2023-03-23T04:26:38.920Z,66.83
2023-03-23T04:27:38.900Z,67.03
2023-03-23T04:28:38.899Z,66.72
2023-03-23T04:29:38.899Z,67.03
2023-03-23T04:30:38.894Z,67.13
2023-03-23T04:31:38.853Z,67.03
2023-03-23T04:32:38.868Z,67.13
2023-03-23T04:33:58.591Z,66.93
2023-03-23T04:34:38.850Z,67.03
2023-03-23T04:35:38.840Z,67.24
2023-03-23T04:36:56.964Z,67.24
2023-03-23T04:37:38.789Z,67.24
2023-03-23T04:38:38.798Z,67.24
2023-03-23T04:39:38.774Z,67.54
2023-03-23T04:40:38.812Z,67.75
2023-03-23T04:41:38.743Z,67.95
2023-03-23T04:42:38.747Z,67.54
2023-03-23T04:43:38.732Z,67.44
2023-03-23T04:44:38.726Z,67.13
2023-03-23T04:45:38.776Z,67.24
2023-03-23T04:46:38.720Z,66.83
2023-03-23T04:47:38.693Z,67.03
2023-03-23T04:48:38.688Z,66.93
2023-03-23T04:49:38.658Z,66.52
2023-03-23T04:50:38.682Z,66.42
2023-03-23T04:51:38.644Z,66.62
2023-03-23T04:52:38.668Z,66.31
2023-03-23T04:53:38.565Z,66.18
2023-03-23T04:54:38.637Z,65.98
2023-03-23T04:55:38.555Z,66.08
2023-03-23T04:56:38.546Z,66.18
2023-03-23T04:57:38.591Z,66.08
2023-03-23T04:58:38.606Z,66.28
2023-03-23T04:59:38.556Z,66.18
2023-03-23T05:00:38.549Z,66.49
2023-03-23T05:01:38.529Z,66.18
2023-03-23T05:02:38.519Z,66.18
2023-03-23T05:03:38.462Z,65.98
2023-03-23T05:04:38.443Z,65.77
2023-03-23T05:05:38.462Z,65.77
2023-03-23T05:06:38.440Z,65.88
2023-03-23T05:07:38.439Z,65.74
2023-03-23T05:08:38.406Z,65.44
2023-03-23T05:09:38.421Z,65.23
2023-03-23T05:10:38.380Z,65.44
2023-03-23T05:11:38.385Z,65.34
2023-03-23T05:12:38.365Z,65.23
2023-03-23T05:13:38.377Z,65.44
2023-03-23T05:14:38.338Z,65.23
2023-03-23T05:15:38.374Z,65.23
2023-03-23T05:16:38.313Z,65.13
2023-03-23T05:17:38.319Z,65.34
2023-03-23T05:18:38.300Z,65.44
2023-03-23T05:19:38.312Z,65.23
2023-03-23T05:20:38.270Z,65.34
2023-03-23T05:21:38.300Z,65.13
2023-03-23T05:22:38.249Z,65.03
2023-03-23T05:23:38.258Z,65.20
2023-03-23T05:24:38.237Z,65.41
2023-03-23T05:25:38.237Z,65.51
2023-03-23T05:26:38.220Z,65.34
2023-03-23T05:27:38.213Z,65.34
2023-03-23T05:28:38.186Z,65.13
2023-03-23T05:29:38.207Z,65.20
2023-03-23T05:30:38.163Z,65.20
2023-03-23T05:31:38.181Z,65.20
2023-03-23T05:32:38.157Z,65.10
2023-03-23T05:33:38.148Z,65.20
2023-03-23T05:34:38.121Z,65.20
2023-03-23T05:35:39.228Z,65.20
2023-03-23T05:36:38.105Z,65.20
2023-03-23T05:37:38.118Z,65.31
2023-03-23T05:38:38.085Z,65.41
2023-03-23T05:39:38.101Z,65.61
2023-03-23T05:40:38.057Z,65.41
2023-03-23T05:41:38.099Z,65.61
2023-03-23T05:42:38.038Z,65.41
2023-03-23T05:43:38.040Z,65.41
2023-03-23T05:44:38.042Z,65.41
2023-03-23T05:45:38.019Z,65.51
2023-03-23T05:46:37.990Z,65.41
2023-03-23T05:47:38.009Z,65.20
2023-03-23T05:48:37.970Z,65.20
2023-03-23T05:49:37.997Z,65.41
2023-03-23T05:50:37.951Z,65.41
2023-03-23T05:51:37.956Z,65.20
2023-03-23T05:52:37.936Z,65.20
2023-03-23T05:53:37.985Z,65.20
2023-03-23T05:54:37.908Z,65.10
2023-03-23T05:55:37.929Z,65.20
2023-03-23T05:56:37.887Z,65.00
2023-03-23T05:57:37.905Z,64.97
2023-03-23T05:58:37.872Z,64.97
2023-03-23T05:59:37.870Z,65.17
2023-03-23T06:00:37.846Z,65.07
2023-03-23T06:01:37.865Z,65.07
2023-03-23T06:02:37.828Z,65.07
2023-03-23T06:03:37.845Z,65.17
2023-03-23T06:04:37.813Z,65.07
2023-03-23T06:05:37.810Z,64.97
2023-03-23T06:06:37.781Z,64.87
2023-03-23T06:07:37.802Z,64.66
2023-03-23T06:08:37.766Z,64.66
2023-03-23T06:09:37.799Z,64.56
2023-03-23T06:10:37.738Z,64.56
2023-03-23T06:11:37.757Z,64.56
2023-03-23T06:12:37.714Z,64.32
2023-03-23T06:13:37.741Z,64.32
2023-03-23T06:14:37.716Z,64.63
2023-03-23T06:15:37.700Z,64.22
2023-03-23T06:16:37.674Z,64.32
2023-03-23T06:17:37.693Z,64.43
2023-03-23T06:18:37.654Z,64.22
2023-03-23T06:19:37.660Z,63.92
2023-03-23T06:20:37.673Z,63.71
2023-03-23T06:21:37.658Z,64.12
2023-03-23T06:22:37.617Z,63.51
2023-03-23T06:23:37.641Z,63.71
2023-03-23T06:24:37.591Z,63.51
2023-03-23T06:25:37.604Z,63.31
2023-03-23T06:26:37.565Z,63.20
2023-03-23T06:27:37.590Z,63.18
2023-03-23T06:28:37.545Z,63.18
2023-03-23T06:29:37.568Z,63.48
2023-03-23T06:30:37.527Z,63.28
2023-03-23T06:31:37.546Z,62.97
2023-03-23T06:32:37.516Z,62.97
2023-03-23T06:33:37.527Z,62.97
2023-03-23T06:34:37.490Z,62.66
2023-03-23T06:35:37.488Z,62.66
2023-03-23T06:36:37.463Z,62.54
2023-03-23T06:37:37.477Z,62.43
2023-03-23T06:38:37.438Z,62.33
2023-03-23T06:39:37.457Z,62.33
2023-03-23T06:40:37.421Z,62.43
2023-03-23T06:41:37.434Z,62.54
2023-03-23T06:42:37.405Z,62.33
2023-03-23T06:43:37.772Z,62.43
2023-03-23T06:44:37.379Z,62.33
2023-03-23T06:45:37.392Z,62.43
2023-03-23T06:46:37.363Z,62.33
2023-03-23T06:47:37.392Z,62.33
2023-03-23T06:48:37.340Z,62.23
2023-03-23T06:49:37.353Z,62.33
2023-03-23T06:50:37.312Z,62.13
2023-03-23T06:51:37.332Z,62.02
2023-03-23T06:52:37.295Z,62.30
2023-03-23T06:53:37.293Z,61.99
2023-03-23T06:54:37.467Z,62.20
2023-03-23T06:55:37.270Z,61.90
2023-03-23T06:56:37.250Z,61.99
2023-03-23T06:57:37.280Z,61.99
2023-03-23T06:58:37.226Z,62.20
2023-03-23T06:59:37.231Z,61.90
2023-03-23T07:00:37.204Z,61.90
2023-03-23T07:01:37.223Z,62.17
2023-03-23T07:02:37.185Z,61.87
2023-03-23T07:03:37.213Z,61.97
2023-03-23T07:04:37.162Z,62.37
2023-03-23T07:05:37.171Z,62.37
2023-03-23T07:06:37.140Z,62.78
2023-03-23T07:07:37.171Z,61.76
2023-03-23T07:08:37.125Z,62.68
2023-03-23T07:09:43.160Z,62.37
2023-03-23T07:10:37.098Z,62.27
2023-03-23T07:11:37.111Z,62.48
2023-03-23T07:12:37.073Z,62.88
2023-03-23T07:13:37.111Z,62.48
2023-03-23T07:14:37.051Z,63.06
2023-03-23T07:15:37.077Z,62.75
2023-03-23T07:16:37.032Z,62.24
2023-03-23T07:17:37.040Z,62.24
2023-03-23T07:18:37.034Z,61.74
2023-03-23T07:19:37.015Z,62.04
2023-03-23T07:20:36.988Z,61.74
2023-03-23T07:21:36.996Z,61.83
2023-03-23T07:22:36.971Z,62.35
2023-03-23T07:23:36.985Z,61.83
2023-03-23T07:24:36.954Z,61.63
2023-03-23T07:25:36.953Z,61.74
2023-03-23T07:26:36.925Z,61.63
2023-03-23T07:27:36.944Z,61.13
2023-03-23T07:28:37.168Z,61.13
2023-03-23T07:29:36.918Z,61.22
2023-03-23T07:30:36.887Z,61.53
2023-03-23T07:31:36.886Z,61.43
2023-03-23T07:32:36.873Z,61.53
2023-03-23T07:33:36.864Z,61.74
2023-03-23T07:34:36.847Z,61.63
2023-03-23T07:35:36.898Z,61.53
2023-03-23T07:36:36.819Z,61.83
2023-03-23T07:37:36.838Z,61.53
2023-03-23T07:38:36.794Z,61.63
2023-03-23T07:39:37.764Z,61.81
2023-03-23T07:40:36.779Z,62.01
2023-03-23T07:41:36.792Z,61.81
2023-03-23T07:42:36.749Z,62.41
2023-03-23T07:43:36.771Z,61.91
2023-03-23T07:44:36.729Z,63.23
2023-03-23T07:45:36.766Z,65.36
2023-03-23T07:46:36.722Z,65.97
2023-03-23T07:47:36.726Z,65.57
2023-03-23T07:48:36.689Z,66.66
2023-03-23T07:49:36.706Z,67.36
2023-03-23T07:50:36.685Z,67.77
2023-03-23T07:51:36.673Z,67.16
2023-03-23T07:52:36.643Z,67.27
2023-03-23T07:53:36.646Z,66.46
2023-03-23T07:54:36.617Z,65.23
2023-03-23T07:55:36.642Z,65.94
2023-03-23T07:56:36.606Z,65.71
2023-03-23T07:57:36.620Z,66.63
2023-03-23T07:58:36.578Z,67.44
2023-03-23T07:59:36.601Z,67.33
2023-03-23T08:00:36.553Z,67.10
2023-03-23T08:01:36.587Z,67.30
2023-03-23T08:02:36.546Z,65.17
2023-03-23T08:03:36.541Z,64.87
2023-03-23T08:04:36.529Z,63.37
2023-03-23T08:05:36.517Z,63.68
2023-03-23T08:06:36.508Z,65.41
2023-03-23T08:07:36.505Z,63.88
2023-03-23T08:08:36.502Z,63.68
2023-03-23T08:09:36.489Z,64.39
2023-03-23T08:10:36.449Z,62.97
2023-03-23T08:11:36.482Z,63.07
2023-03-23T08:12:36.431Z,63.20
2023-03-23T08:13:36.453Z,64.22
2023-03-23T08:14:36.431Z,63.40
2023-03-23T08:15:36.403Z,64.52
2023-03-23T08:16:36.376Z,64.01
2023-03-23T08:17:36.409Z,63.81
2023-03-23T08:18:36.387Z,65.23
2023-03-23T08:19:36.373Z,65.33
2023-03-23T08:20:36.346Z,64.42
2023-03-23T08:21:36.372Z,64.42
2023-03-23T08:22:39.427Z,66.05
2023-03-23T08:23:36.345Z,66.25
2023-03-23T08:24:36.299Z,68.08
2023-03-23T08:25:36.299Z,67.06
2023-03-23T08:26:36.270Z,64.62
2023-03-23T08:27:36.277Z,64.62
2023-03-23T08:28:36.248Z,64.62
2023-03-23T08:29:36.279Z,63.74
2023-03-23T08:30:36.232Z,64.52
2023-03-23T08:31:36.233Z,64.15
2023-03-23T08:32:36.205Z,64.22
2023-03-23T08:33:36.210Z,64.32
2023-03-23T08:34:36.199Z,64.83
2023-03-23T08:35:36.232Z,66.05
2023-03-23T08:36:36.162Z,65.84
2023-03-23T08:37:36.181Z,65.23
2023-03-23T08:38:36.142Z,65.03
2023-03-23T08:39:36.176Z,64.62
2023-03-23T08:40:36.129Z,63.91
2023-03-23T08:41:36.136Z,63.91
2023-03-23T08:42:36.097Z,64.22
2023-03-23T08:43:36.114Z,64.62
2023-03-23T08:44:36.075Z,64.93
2023-03-23T08:45:36.107Z,64.62
2023-03-23T08:46:36.057Z,64.93
2023-03-23T08:47:36.081Z,64.62
2023-03-23T08:48:36.031Z,64.73
2023-03-23T08:49:36.038Z,64.62
2023-03-23T08:50:36.023Z,64.73
2023-03-23T08:51:36.033Z,64.32
2023-03-23T08:52:35.992Z,64.83
2023-03-23T08:53:36.022Z,64.62
2023-03-23T08:54:35.972Z,64.42
2023-03-23T08:55:35.975Z,65.03
2023-03-23T08:56:36.013Z,65.13
2023-03-23T08:57:36.085Z,65.03
2023-03-23T08:58:35.945Z,65.13
2023-03-23T08:59:35.948Z,65.13
2023-03-23T09:00:44.085Z,64.83
2023-03-23T09:01:35.931Z,64.52
2023-03-23T09:02:35.896Z,65.20
2023-03-23T09:03:35.910Z,65.41
2023-03-23T09:04:35.864Z,65.00
2023-03-23T09:05:35.882Z,64.70
2023-03-23T09:06:35.857Z,65.61
2023-03-23T09:07:35.880Z,64.90
2023-03-23T09:08:35.820Z,64.90
2023-03-23T09:09:35.851Z,65.27
2023-03-23T09:10:35.804Z,64.26
2023-03-23T09:11:35.804Z,64.46
2023-03-23T09:12:35.788Z,64.67
2023-03-23T09:13:35.799Z,66.19
2023-03-23T09:14:35.758Z,64.26
2023-03-23T09:15:43.503Z,64.23
2023-03-23T09:16:35.746Z,63.52
2023-03-23T09:17:35.758Z,63.62
2023-03-23T09:18:35.861Z,63.72
2023-03-23T09:19:35.721Z,63.72
2023-03-23T09:20:35.711Z,64.13
2023-03-23T09:21:35.684Z,63.32
2023-03-23T09:22:35.705Z,63.11
2023-03-23T09:23:36.517Z,62.88
2023-03-23T09:24:35.677Z,62.88
2023-03-23T09:25:35.878Z,62.88
2023-03-23T09:26:35.662Z,63.18
2023-03-23T09:27:35.621Z,62.17
2023-03-23T09:28:35.644Z,61.66
2023-03-23T09:29:35.609Z,61.97
2023-03-23T09:30:41.946Z,61.33
2023-03-23T09:31:35.584Z,61.23
2023-03-23T09:32:35.588Z,60.82
2023-03-23T09:33:35.562Z,60.31
2023-03-23T09:34:35.595Z,60.01
2023-03-23T09:35:35.562Z,59.78
2023-03-23T09:36:35.577Z,59.27
2023-03-23T09:37:35.538Z,59.17
2023-03-23T09:38:35.520Z,58.26
2023-03-23T09:39:35.495Z,58.26
2023-03-23T09:40:35.505Z,58.54
2023-03-23T09:41:35.477Z,58.74
2023-03-23T09:42:35.497Z,58.94
2023-03-23T09:43:35.457Z,59.12
2023-03-23T09:44:35.476Z,59.42
2023-03-23T09:45:35.439Z,59.22
2023-03-23T09:46:35.442Z,58.11
2023-03-23T09:47:35.417Z,57.90
2023-03-23T09:48:35.456Z,56.79
2023-03-23T09:49:35.389Z,56.99
2023-03-23T09:50:35.400Z,57.29
2023-03-23T09:51:35.367Z,56.79
2023-03-23T09:52:35.396Z,56.18
2023-03-23T09:53:35.349Z,56.18
2023-03-23T09:54:35.377Z,55.77
2023-03-23T09:55:35.334Z,56.08
2023-03-23T09:56:35.332Z,55.88
2023-03-23T09:57:35.305Z,56.28
2023-03-23T09:58:35.325Z,56.38
2023-03-23T09:59:35.292Z,56.48
2023-03-23T10:00:35.359Z,56.48
2023-03-23T10:01:35.260Z,56.38
2023-03-23T10:02:35.298Z,56.46
2023-03-23T10:03:35.237Z,56.76
2023-03-23T10:04:35.256Z,56.15
2023-03-23T10:05:35.258Z,55.75
2023-03-23T10:06:35.236Z,55.75
2023-03-23T10:07:35.215Z,56.26
2023-03-23T10:08:35.744Z,56.56
2023-03-23T10:09:35.171Z,57.27
2023-03-23T10:10:35.179Z,57.78
2023-03-23T10:11:35.159Z,59.19
2023-03-23T10:12:35.173Z,57.57
2023-03-23T10:13:35.136Z,58.31
2023-03-23T10:14:35.151Z,59.01
2023-03-23T10:15:35.126Z,58.71
2023-03-23T10:16:35.112Z,59.14
2023-03-23T10:17:35.174Z,59.34
2023-03-23T10:18:35.098Z,60.06
2023-03-23T10:19:35.072Z,59.75
2023-03-23T10:20:35.071Z,60.79
2023-03-23T10:21:35.042Z,61.00
2023-03-23T10:22:35.064Z,59.58
2023-03-23T10:23:35.018Z,60.08
2023-03-23T10:24:35.023Z,60.49
2023-03-23T10:25:35.006Z,60.59
2023-03-23T10:26:35.004Z,60.42
2023-03-23T10:27:34.975Z,60.82
2023-03-23T10:28:34.981Z,60.93
2023-03-23T10:29:34.958Z,61.53
2023-03-23T10:30:34.984Z,61.13
2023-03-23T10:31:34.932Z,61.33
2023-03-23T10:32:34.963Z,61.33
2023-03-23T10:33:34.924Z,61.83
2023-03-23T10:34:34.932Z,62.34
2023-03-23T10:35:34.890Z,62.34
2023-03-23T10:36:34.917Z,62.54
2023-03-23T10:37:34.869Z,62.65
2023-03-23T10:38:34.879Z,62.85
2023-03-23T10:39:34.847Z,62.95
2023-03-23T10:40:34.853Z,63.06
2023-03-23T10:41:34.829Z,63.15
2023-03-23T10:42:34.858Z,63.56
2023-03-23T10:43:34.806Z,63.06
2023-03-23T10:44:34.809Z,63.35
2023-03-23T10:45:34.792Z,63.46
2023-03-23T10:46:39.681Z,63.35
2023-03-23T10:47:34.765Z,63.35
2023-03-23T10:48:34.786Z,63.15
2023-03-23T10:49:34.752Z,63.66
2023-03-23T10:50:34.761Z,63.56
2023-03-23T10:51:34.721Z,63.56
2023-03-23T10:52:34.748Z,63.26
2023-03-23T10:53:34.713Z,63.66
2023-03-23T10:54:34.773Z,63.76
2023-03-23T10:55:34.679Z,63.56
2023-03-23T10:56:38.624Z,63.46
2023-03-23T10:57:34.683Z,63.76
2023-03-23T10:58:34.691Z,63.96
2023-03-23T10:59:34.681Z,64.27
2023-03-23T11:00:34.709Z,64.17
2023-03-23T11:01:34.661Z,64.27
2023-03-23T11:02:34.678Z,64.07
2023-03-23T11:03:34.696Z,64.27
2023-03-23T11:04:34.709Z,64.47
2023-03-23T11:05:34.584Z,64.81
2023-03-23T11:06:34.577Z,64.70
2023-03-23T11:07:34.551Z,64.91
2023-03-23T11:08:34.571Z,65.01
2023-03-23T11:09:34.537Z,65.42
2023-03-23T11:10:34.533Z,65.82
2023-03-23T11:11:34.506Z,65.62
2023-03-23T11:12:34.527Z,65.92
2023-03-23T11:13:34.497Z,65.42
2023-03-23T11:14:34.503Z,65.72
2023-03-23T11:15:34.467Z,66.13
2023-03-23T11:16:34.475Z,66.13
2023-03-23T11:17:34.444Z,66.26
2023-03-23T11:18:34.452Z,66.26
2023-03-23T11:19:34.449Z,66.43
2023-03-23T11:20:34.445Z,66.77
2023-03-23T11:21:34.400Z,66.36
2023-03-23T11:22:34.421Z,66.66
2023-03-23T11:23:34.389Z,66.86
2023-03-23T11:24:34.420Z,66.66
2023-03-23T11:25:34.366Z,67.07
2023-03-23T11:26:34.385Z,66.97
2023-03-23T11:27:34.339Z,67.38
2023-03-23T11:28:34.364Z,67.27
2023-03-23T11:29:34.331Z,67.47
2023-03-23T11:30:34.338Z,67.38
2023-03-23T11:31:34.316Z,67.68
2023-03-23T11:32:34.316Z,67.78
2023-03-23T11:33:34.397Z,67.07
2023-03-23T11:34:34.299Z,66.86
2023-03-23T11:35:34.263Z,66.94
2023-03-23T11:36:34.274Z,67.07
2023-03-23T11:37:34.251Z,67.58
2023-03-23T11:38:34.241Z,67.68
2023-03-23T11:39:34.213Z,67.65
2023-03-23T11:40:34.217Z,67.55
2023-03-23T11:41:34.237Z,67.24
2023-03-23T11:42:34.198Z,67.34
2023-03-23T11:43:34.204Z,67.44
2023-03-23T11:44:34.198Z,67.44
2023-03-23T11:45:34.151Z,67.75
2023-03-23T11:46:34.154Z,68.05
2023-03-23T11:47:34.135Z,68.05
2023-03-23T11:48:34.152Z,67.85
2023-03-23T11:49:34.114Z,67.75
2023-03-23T11:50:34.114Z,68.05
2023-03-23T11:51:34.093Z,68.26
2023-03-23T11:52:34.092Z,68.66
2023-03-23T11:53:34.064Z,68.73
2023-03-23T11:54:34.102Z,68.73
2023-03-23T11:55:34.070Z,68.87
2023-03-23T11:56:34.075Z,68.46
2023-03-23T11:57:34.023Z,68.87
2023-03-23T11:58:34.044Z,68.96
2023-03-23T11:59:34.013Z,68.87
2023-03-23T12:00:34.023Z,68.96
2023-03-23T12:01:33.996Z,68.73
2023-03-23T12:02:33.999Z,68.73
2023-03-23T12:03:33.960Z,68.52
2023-03-23T12:04:34.008Z,68.60
2023-03-23T12:05:33.935Z,68.16
2023-03-23T12:06:33.944Z,66.88
2023-03-23T12:07:33.932Z,67.08
2023-03-23T12:08:33.939Z,67.38
2023-03-23T12:09:33.897Z,67.08
2023-03-23T12:10:40.822Z,67.58
2023-03-23T12:11:33.877Z,67.28
2023-03-23T12:12:33.895Z,67.48
2023-03-23T12:13:33.850Z,67.48
2023-03-23T12:14:38.216Z,67.89
2023-03-23T12:15:33.845Z,67.68
2023-03-23T12:16:33.853Z,67.76
2023-03-23T12:17:33.809Z,67.25
2023-03-23T12:18:33.842Z,67.28
2023-03-23T12:19:33.793Z,66.97
2023-03-23T12:20:37.758Z,67.38
2023-03-23T12:21:33.773Z,67.18
2023-03-23T12:22:33.774Z,67.58
2023-03-23T12:23:33.757Z,66.88
2023-03-23T12:24:33.754Z,66.67
2023-03-23T12:25:33.724Z,66.97
2023-03-23T12:26:33.759Z,66.94
2023-03-23T12:27:33.701Z,66.94
2023-03-23T12:28:33.719Z,66.44
2023-03-23T12:29:33.684Z,66.30
2023-03-23T12:30:33.704Z,66.50
2023-03-23T12:31:33.678Z,66.30
2023-03-23T12:32:33.704Z,65.50
2023-03-23T12:33:33.642Z,65.59
2023-03-23T12:34:33.647Z,65.29
2023-03-23T12:35:33.658Z,65.59
2023-03-23T12:36:33.712Z,65.90
2023-03-23T12:37:33.601Z,65.80
2023-03-23T12:38:33.621Z,65.29
2023-03-23T12:39:33.576Z,64.65
2023-03-23T12:40:33.578Z,65.09
2023-03-23T12:41:33.576Z,64.79
2023-03-23T12:42:33.559Z,64.99
2023-03-23T12:43:33.532Z,65.39
2023-03-23T12:44:33.546Z,65.70
2023-03-23T12:45:33.519Z,65.59
2023-03-23T12:46:33.531Z,66.10
2023-03-23T12:47:33.489Z,65.59
2023-03-23T12:48:33.508Z,64.86
2023-03-23T12:49:33.466Z,64.76
2023-03-23T12:50:33.490Z,64.89
2023-03-23T12:51:33.458Z,64.79
2023-03-23T12:52:33.454Z,64.89